PROFILE

 METAR AND TAF INFORMATION
METAR FOR TNCM
ADDS - METARS form results

(2252 UTC 23 April 2018)
Data provider http://aviationweather.gov/adds/metars/
 
METAR text: TNCM 232200Z 08012KT 050V140 9999 FEW020 BKN040 27/21 Q1017 A3003 NOSIG
Conditions at: TNCM (ST MAARTEN JULIA, VI) observed 2200 UTC 23 April 2018
Temperature: 27.0°C (81°F)
Dewpoint: 21.0°C (70°F) [RH = 70%]
Pressure (altimeter): 30.03 inches Hg (1017.0 mb)
Winds: from the E (80 degrees) at 14 MPH (12 knots; 6.2 m/s)
Visibility: 6 or more miles (10+ km)
Ceiling: 4000 feet AGL
Clouds: few clouds at 2000 feet AGL
broken clouds at 4000 feet AGL
Weather: no significant weather observed at this time

Forecast for: TNCM (ST MAARTEN JULIA, VI)
Text: TNCM 231724Z 2318/2418 10012KT P6SM VCSH SCT018 BKN040
Forecast period: 1800 to 2300 UTC 23 April 2018
Forecast type: FROM: standard forecast or significant change
Winds: from the E (100 degrees) at 14 MPH (12 knots; 6.2 m/s)
Visibility: 6 or more miles (10+ km)
Ceiling: 4000 feet AGL
Clouds: scattered clouds at 1800 feet AGL
broken clouds at 4000 feet AGL
Weather: VCSH  (showers in vicinity)
Forecast for: TNCM (ST MAARTEN JULIA, VI)
Text: TNCM 231724Z 2318/2418 10012KT P6SM VCSH SCT018 BKN040
Forecast period: 1800 to 2300 UTC 23 April 2018
Forecast type: FROM: standard forecast or significant change
Winds: from the E (100 degrees) at 14 MPH (12 knots; 6.2 m/s)
Visibility: 6 or more miles (10+ km)
Ceiling: 4000 feet AGL
Clouds: scattered clouds at 1800 feet AGL
broken clouds at 4000 feet AGL
Weather: VCSH  (showers in vicinity)
Forecast for: TNCM (ST MAARTEN JULIA, VI)
Text: TNCM 231724Z 2318/2418 10012KT P6SM VCSH SCT018 BKN040
Forecast period: 1800 to 2200 UTC 23 April 2018
Forecast type: TEMPORARY: The following changes expected for less than half the time period
Winds: variable direction winds at 16 MPH (14 knots; 7.3 m/s)
gusting to 25 MPH (22 knots; 11.4 m/s)
Visibility: 5 miles (8 km)
Ceiling: 1800 feet AGL
Clouds: broken clouds at 1800 feet AGL
Weather: SHRA  (rain showers)
Forecast for: TNCM (ST MAARTEN JULIA, VI)
Text: TNCM 231724Z 2318/2418 10012KT P6SM VCSH SCT018 BKN040
Forecast period: 1800 to 2200 UTC 23 April 2018
Forecast type: TEMPORARY: The following changes expected for less than half the time period
Winds: variable direction winds at 16 MPH (14 knots; 7.3 m/s)
gusting to 25 MPH (22 knots; 11.4 m/s)
Visibility: 5 miles (8 km)
Ceiling: 1800 feet AGL
Clouds: broken clouds at 1800 feet AGL
Weather: SHRA  (rain showers)
Forecast for: TNCM (ST MAARTEN JULIA, VI)
Text: TNCM 231724Z 2318/2418 10012KT P6SM VCSH SCT018 BKN040
Forecast period: 2300 UTC 23 April 2018 to 0400 UTC 24 April 2018
Forecast type: FROM: standard forecast or significant change
Winds: from the E (90 degrees) at 12 MPH (10 knots; 5.2 m/s)
Visibility: 6 or more miles (10+ km)
Clouds: few clouds at 1800 feet AGL
scattered clouds at 4000 feet AGL
scattered clouds at 12000 feet AGL
Weather: no significant weather forecast for this period
Forecast for: TNCM (ST MAARTEN JULIA, VI)
Text: TNCM 231724Z 2318/2418 10012KT P6SM VCSH SCT018 BKN040
Forecast period: 2300 UTC 23 April 2018 to 0400 UTC 24 April 2018
Forecast type: FROM: standard forecast or significant change
Winds: from the E (90 degrees) at 12 MPH (10 knots; 5.2 m/s)
Visibility: 6 or more miles (10+ km)
Clouds: few clouds at 1800 feet AGL
scattered clouds at 4000 feet AGL
scattered clouds at 12000 feet AGL
Weather: no significant weather forecast for this period
Forecast for: TNCM (ST MAARTEN JULIA, VI)
Text: TNCM 231724Z 2318/2418 10012KT P6SM VCSH SCT018 BKN040
Forecast period: 0400 to 1400 UTC 24 April 2018
Forecast type: FROM: standard forecast or significant change
Winds: from the E (80 degrees) at 9 MPH (8 knots; 4.2 m/s)
Visibility: 6 or more miles (10+ km)
Ceiling: 4000 feet AGL
Clouds: scattered clouds at 1800 feet AGL
broken clouds at 4000 feet AGL
Weather: VCSH  (showers in vicinity)
Forecast for: TNCM (ST MAARTEN JULIA, VI)
Text: TNCM 231724Z 2318/2418 10012KT P6SM VCSH SCT018 BKN040
Forecast period: 0400 to 1400 UTC 24 April 2018
Forecast type: FROM: standard forecast or significant change
Winds: from the E (80 degrees) at 9 MPH (8 knots; 4.2 m/s)
Visibility: 6 or more miles (10+ km)
Ceiling: 4000 feet AGL
Clouds: scattered clouds at 1800 feet AGL
broken clouds at 4000 feet AGL
Weather: VCSH  (showers in vicinity)
Forecast for: TNCM (ST MAARTEN JULIA, VI)
Text: TNCM 231724Z 2318/2418 10012KT P6SM VCSH SCT018 BKN040
Forecast period: 1400 to 1800 UTC 24 April 2018
Forecast type: FROM: standard forecast or significant change
Winds: from the E (100 degrees) at 14 MPH (12 knots; 6.2 m/s)
Visibility: 6 or more miles (10+ km)
Clouds: scattered clouds at 2400 feet AGL
scattered clouds at 5000 feet AGL
Weather: no significant weather forecast for this period
Forecast for: TNCM (ST MAARTEN JULIA, VI)
Text: TNCM 231724Z 2318/2418 10012KT P6SM VCSH SCT018 BKN040
Forecast period: 1400 to 1800 UTC 24 April 2018
Forecast type: FROM: standard forecast or significant change
Winds: from the E (100 degrees) at 14 MPH (12 knots; 6.2 m/s)
Visibility: 6 or more miles (10+ km)
Clouds: scattered clouds at 2400 feet AGL
scattered clouds at 5000 feet AGL
Weather: no significant weather forecast for this period

 AIRPORT MAP

 RUNWAY INFORMATION
Runway 09 Runway length 7708 ft Runway width 148 ft
Runway elevation 11 ft Runway displaced threshold 162 ft Runway heading 81
Runway 27 Runway length 7708 ft Runway width 148 ft
Runway elevation 11 ft Runway displaced threshold 394 ft Runway heading 261
Runway 10 Runway length 7152 ft Runway width 148 ft
Runway elevation 12 ft Runway displaced threshold 0 ft Runway heading 81
Runway 28 Runway length 7152 ft Runway width 148 ft
Runway elevation 9 ft Runway displaced threshold 0 ft Runway heading 261

 AIRPORT FREQUENCIES
Type APP Name JULIANA AP Frequency 128.95 MHZ
Type TWR Name JULIANA TW Frequency 118.7 MHZ

 AIRPORT NEAR NAVIGATION AIDS
Type NDB Name St.mMarten Frequency 284 KHZ
Type VOR-DME Name St.mMarten Frequency 113000 KHZ